Time;durP1;ratioP1;P1;durP2;ratioP2;P2;SDS_P1;SDS_P2;PMS_P1;PMS_P2;Temp;Humidity;BMP_temperature;BMP_pressure;BME280_temperature;BME280_humidity;BME280_pressure;Samples;Min_cycle;Max_cycle;Signal;HPM_P1;HPM_P2
2021/04/04 00:02:07;;;;;;;13.40;8.20;;;;;;;30.42;54.00;100797.81;4800105;29;65974;-35
2021/04/04 00:04:37;;;;;;;8.35;7.60;;;;;;;30.42;54.64;100796.97;4803215;29;69315;-35
2021/04/04 00:07:10;;;;;;;17.63;7.90;;;;;;;30.45;55.07;100808.19;4799215;29;65795;-39
2021/04/04 00:09:42;;;;;;;25.20;8.27;;;;;;;30.50;54.95;100815.63;4806675;29;69532;-38
2021/04/04 00:12:12;;;;;;;9.27;7.40;;;;;;;30.48;56.01;100820.47;4807667;29;65792;-33
2021/04/04 00:14:41;;;;;;;41.20;18.58;;;;;;;30.54;56.62;100827.72;4800076;29;70483;-32
2021/04/04 00:17:11;;;;;;;39.47;16.05;;;;;;;30.65;56.06;100835.13;4821020;29;66154;-31
2021/04/04 00:19:40;;;;;;;28.90;13.15;;;;;;;30.71;56.03;100844.25;4795579;29;69294;-32
2021/04/04 00:22:13;;;;;;;19.70;11.43;;;;;;;30.72;56.51;100841.28;4809177;29;66331;-31
2021/04/04 00:24:42;;;;;;;22.65;11.40;;;;;;;30.75;56.11;100839.19;4797100;29;69564;-32
2021/04/04 00:27:12;;;;;;;30.33;10.68;;;;;;;30.79;56.04;100851.28;4793674;29;65970;-31
2021/04/04 00:29:41;;;;;;;15.57;10.00;;;;;;;30.78;56.67;100857.72;4800469;29;70131;-31
2021/04/04 00:32:11;;;;;;;18.33;9.93;;;;;;;30.78;57.06;100860.41;4804474;29;65298;-31
2021/04/04 00:34:40;;;;;;;11.73;8.65;;;;;;;30.80;56.98;100869.19;4794452;29;69771;-31
2021/04/04 00:37:11;;;;;;;30.58;9.48;;;;;;;30.84;57.16;100876.66;4804370;29;66703;-31
2021/04/04 00:39:40;;;;;;;18.00;8.07;;;;;;;30.82;57.89;100875.22;4803194;29;69818;-32
2021/04/04 00:42:10;;;;;;;13.20;8.88;;;;;;;30.86;57.93;100873.72;4802873;29;65434;-31
2021/04/04 00:44:40;;;;;;;12.52;7.60;;;;;;;30.81;57.95;100881.69;4802235;29;70161;-32
2021/04/04 00:47:09;;;;;;;9.65;6.93;;;;;;;30.80;58.34;100886.28;4800706;29;66723;-32
2021/04/04 00:49:39;;;;;;;17.05;7.22;;;;;;;30.80;58.26;100894.38;4803556;29;69917;-31
2021/04/04 00:52:08;;;;;;;12.57;6.88;;;;;;;30.81;58.16;100903.34;4804667;29;65938;-31
2021/04/04 00:54:38;;;;;;;10.25;7.30;;;;;;;30.87;58.65;100902.47;4796506;29;70033;-32
2021/04/04 00:57:08;;;;;;;12.13;6.45;;;;;;;30.90;57.94;100912.88;4797359;29;66003;-32
2021/04/04 00:59:38;;;;;;;8.98;6.70;;;;;;;30.97;58.08;100901.97;4801750;29;70260;-31
2021/04/04 01:02:07;;;;;;;8.68;6.22;;;;;;;30.90;58.02;100907.47;4802403;29;65899;-34
2021/04/04 01:04:39;;;;;;;17.58;7.00;;;;;;;30.98;58.00;100923.44;4796241;29;70062;-35
2021/04/04 01:07:11;;;;;;;8.45;6.10;;;;;;;31.03;58.47;100929.00;4800448;29;67087;-35
2021/04/04 01:09:40;;;;;;;11.40;7.90;;;;;;;31.05;58.76;100926.91;4813896;29;70038;-35
2021/04/04 01:12:26;;;;;;;12.02;8.18;;;;;;;31.03;58.48;100923.59;4799928;29;65334;-35
2021/04/04 01:15:06;;;;;;;16.90;7.95;;;;;;;31.01;58.42;100914.88;4801035;29;69823;-34
2021/04/04 01:17:36;;;;;;;19.23;7.65;;;;;;;31.11;58.09;100928.75;4801661;29;65360;-35
2021/04/04 01:20:17;;;;;;;10.70;6.70;;;;;;;31.12;58.16;100935.84;4799039;29;70464;-35
2021/04/04 01:22:58;;;;;;;14.52;6.68;;;;;;;31.16;57.95;100928.91;4798714;29;66143;-34
2021/04/04 01:25:35;;;;;;;21.98;7.05;;;;;;;31.27;58.58;100929.25;4805010;29;68754;-34
2021/04/04 01:28:26;;;;;;;15.02;6.10;;;;;;;31.23;59.15;100917.19;4799338;29;65926;-34
2021/04/04 01:30:57;;;;;;;9.33;7.70;;;;;;;31.38;58.34;100918.53;4799673;29;69767;-34
2021/04/04 01:33:32;;;;;;;13.63;7.82;;;;;;;31.45;58.50;100914.94;4804181;29;65851;-34
2021/04/04 01:36:05;;;;;;;17.10;8.15;;;;;;;31.42;58.64;100927.03;4805961;29;70580;-35
2021/04/04 01:38:42;;;;;;;10.75;7.68;;;;;;;31.37;58.38;100910.59;4803049;29;66113;-35
2021/04/04 01:41:20;;;;;;;18.92;7.40;;;;;;;31.54;58.14;100930.69;4800793;29;69851;-34
2021/04/04 01:43:52;;;;;;;8.75;6.93;;;;;;;31.59;58.00;100917.31;4809178;29;66146;-34
2021/04/04 01:46:24;;;;;;;15.20;7.55;;;;;;;31.60;58.31;100918.13;4804418;29;70204;-34
2021/04/04 01:48:55;;;;;;;41.00;8.70;;;;;;;31.63;58.00;100916.84;4799346;29;66416;-35
2021/04/04 01:51:27;;;;;;;17.33;8.68;;;;;;;31.68;57.96;100914.25;4807017;29;69286;-33
2021/04/04 01:54:04;;;;;;;15.35;8.98;;;;;;;31.67;57.98;100912.63;4791522;29;67832;-34
2021/04/04 01:56:35;;;;;;;14.48;8.68;;;;;;;31.74;58.52;100918.81;4808253;29;69741;-33
2021/04/04 01:59:06;;;;;;;15.73;8.65;;;;;;;31.70;57.99;100907.56;4799922;29;66150;-34
2021/04/04 02:01:36;;;;;;;11.18;7.47;;;;;;;31.81;58.39;100911.41;4794414;29;69613;-34
2021/04/04 02:04:09;;;;;;;10.07;8.00;;;;;;;31.81;58.27;100908.69;4795174;29;66379;-34
2021/04/04 02:06:43;;;;;;;17.48;7.63;;;;;;;31.85;58.14;100912.63;4799649;29;69607;-34
2021/04/04 02:09:17;;;;;;;10.82;6.75;;;;;;;31.84;58.16;100902.81;4813714;29;66491;-33
2021/04/04 02:11:50;;;;;;;20.88;7.57;;;;;;;31.85;58.14;100888.22;4808378;29;69860;-34
2021/04/04 02:14:22;;;;;;;8.20;7.17;;;;;;;31.90;58.48;100901.94;4798409;29;66087;-33
2021/04/04 02:16:55;;;;;;;11.57;6.13;;;;;;;31.90;58.42;100904.66;4800975;29;69920;-33
2021/04/04 02:19:27;;;;;;;12.23;7.55;;;;;;;31.99;58.09;100916.88;4803239;29;65811;-39
2021/04/04 02:21:58;;;;;;;8.85;7.00;;;;;;;32.03;57.74;100912.63;4803859;29;68912;-33
2021/04/04 02:24:30;;;;;;;13.82;7.38;;;;;;;32.07;57.59;100907.59;4804562;29;66015;-34
2021/04/04 02:26:59;;;;;;;11.10;8.32;;;;;;;32.12;57.01;100904.19;4807743;29;69624;-35
2021/04/04 02:29:30;;;;;;;11.25;7.45;;;;;;;32.12;57.10;100893.34;4803317;29;65336;-34
2021/04/04 02:32:02;;;;;;;11.10;7.45;;;;;;;32.21;56.85;100910.97;4800486;29;69808;-34
2021/04/04 02:34:35;;;;;;;19.23;8.63;;;;;;;32.24;56.81;100902.38;4796793;29;66172;-33
2021/04/04 02:37:06;;;;;;;9.85;7.05;;;;;;;32.26;56.73;100905.66;4803232;29;69941;-34
2021/04/04 02:39:59;;;;;;;15.70;7.95;;;;;;;32.27;56.67;100896.50;4797812;29;66722;-32
2021/04/04 02:42:33;;;;;;;20.00;8.27;;;;;;;32.33;57.13;100895.56;4805416;29;69725;-33
2021/04/04 02:45:07;;;;;;;20.98;8.13;;;;;;;32.33;56.74;100895.56;4800036;29;66247;-34
2021/04/04 02:47:45;;;;;;;14.73;7.82;;;;;;;32.33;57.06;100895.56;4800409;29;69879;-33
2021/04/04 02:50:19;;;;;;;11.20;7.25;;;;;;;32.39;56.81;100894.63;4791168;29;65281;-35
2021/04/04 02:52:51;;;;;;;17.80;7.03;;;;;;;32.35;56.45;100893.47;4798143;29;69442;-32
2021/04/04 02:55:27;;;;;;;9.38;6.95;;;;;;;32.36;56.35;100886.13;4806964;29;65867;-34
2021/04/04 02:57:59;;;;;;;14.70;8.48;;;;;;;32.49;56.25;100900.38;4808161;29;69051;-34
2021/04/04 03:00:31;;;;;;;20.30;7.97;;;;;;;32.56;56.43;100896.72;4806248;29;65366;-33
2021/04/04 03:03:03;;;;;;;15.77;8.02;;;;;;;32.57;55.97;100893.81;4808272;29;68777;-34
2021/04/04 03:05:34;;;;;;;16.08;7.85;;;;;;;32.64;56.02;100902.66;4804626;29;65887;-34
2021/04/04 03:08:07;;;;;;;12.20;8.45;;;;;;;32.59;55.81;100878.09;4792817;29;70637;-34
2021/04/04 03:10:37;;;;;;;23.10;9.85;;;;;;;32.73;55.49;100892.28;4794688;29;65739;-33
2021/04/04 03:13:07;;;;;;;18.98;9.00;;;;;;;32.78;55.20;100884.28;4804636;29;70130;-34
2021/04/04 03:15:39;;;;;;;15.23;8.60;;;;;;;32.77;54.48;100874.47;4807722;29;66072;-34
2021/04/04 03:18:08;;;;;;;10.27;8.32;;;;;;;32.83;54.31;100887.13;4804783;29;69698;-34
2021/04/04 03:20:40;;;;;;;20.05;9.10;;;;;;;32.83;53.73;100878.97;4802717;29;66531;-34
2021/04/04 03:23:13;;;;;;;12.98;8.82;;;;;;;32.83;54.82;100873.53;4800040;29;69072;-33
2021/04/04 03:25:44;;;;;;;13.65;8.70;;;;;;;32.90;54.51;100873.41;4804211;29;65944;-35
2021/04/04 03:28:17;;;;;;;14.07;8.55;;;;;;;32.94;54.56;100880.88;4807072;29;70477;-33
2021/04/04 03:30:48;;;;;;;20.73;9.13;;;;;;;33.01;54.54;100879.97;4806425;29;66710;-33
2021/04/04 03:33:23;;;;;;;11.80;8.35;;;;;;;32.99;54.55;100882.91;4803334;29;72022;-33
2021/04/04 03:35:54;;;;;;;18.00;8.75;;;;;;;33.03;54.59;100883.28;4804684;29;66099;-32
2021/04/04 03:38:26;;;;;;;9.98;8.43;;;;;;;33.02;54.20;100877.03;4806094;29;71820;-33
2021/04/04 03:40:56;;;;;;;14.50;9.07;;;;;;;33.06;54.10;100871.94;4801756;29;65958;-33
2021/04/04 03:43:31;;;;;;;10.10;9.20;;;;;;;33.05;53.97;100876.56;4807053;29;70243;-33
2021/04/04 03:46:04;;;;;;;17.63;10.07;;;;;;;33.07;53.87;100851.84;4807779;29;65977;-33
2021/04/04 03:48:35;;;;;;;13.43;8.50;;;;;;;33.19;53.43;100860.00;4805777;29;70135;-33
2021/04/04 03:51:08;;;;;;;9.53;8.57;;;;;;;33.14;53.49;100838.97;4807305;29;64972;-33
2021/04/04 03:53:42;;;;;;;8.82;8.02;;;;;;;33.23;53.49;100840.25;4802216;29;69214;-34
2021/04/04 03:56:24;;;;;;;11.30;8.30;;;;;;;33.24;53.69;100843.78;4801582;29;66694;-34
2021/04/04 03:58:57;;;;;;;12.60;7.93;;;;;;;33.17;53.74;100835.78;4796504;29;69409;-32
2021/04/04 04:01:29;;;;;;;9.93;8.27;;;;;;;33.32;52.94;100838.84;4800995;29;66241;-33
2021/04/04 04:04:00;;;;;;;8.90;7.97;;;;;;;33.36;52.91;100831.84;4797363;29;70436;-33
2021/04/04 04:06:33;;;;;;;28.55;9.18;;;;;;;33.36;52.49;100823.69;4796244;29;66320;-32
2021/04/04 04:09:14;;;;;;;10.35;9.25;;;;;;;33.34;51.70;100806.78;4797758;29;70568;-32
2021/04/04 04:11:47;;;;;;;11.70;9.23;;;;;;;33.37;51.67;100792.72;4799482;29;66092;-32
2021/04/04 04:14:22;;;;;;;11.55;9.70;;;;;;;33.46;51.26;100814.94;4803687;29;70091;-33
2021/04/04 04:16:52;;;;;;;11.25;9.02;;;;;;;33.51;51.82;100808.78;4792512;29;67087;-33
2021/04/04 04:19:22;;;;;;;15.52;8.93;;;;;;;33.53;51.95;100812.13;4801872;29;70150;-34
2021/04/04 04:21:55;;;;;;;15.07;9.23;;;;;;;33.56;51.43;100806.19;4795365;29;66253;-33
2021/04/04 04:24:26;;;;;;;10.90;8.40;;;;;;;33.61;51.17;100803.59;4801348;29;69404;-32
2021/04/04 04:26:57;;;;;;;13.23;9.07;;;;;;;33.63;52.25;100798.75;4799778;29;65982;-32
2021/04/04 04:29:27;;;;;;;23.77;9.68;;;;;;;33.67;51.52;100789.00;4803157;29;69763;-33
2021/04/04 04:32:01;;;;;;;13.05;8.75;;;;;;;33.68;51.66;100790.66;4805178;29;64850;-33
2021/04/04 04:34:32;;;;;;;16.60;8.52;;;;;;;33.73;51.02;100779.88;4799855;29;69050;-34
2021/04/04 04:37:03;;;;;;;11.13;9.07;;;;;;;33.75;51.23;100772.31;4801728;29;66644;-33
2021/04/04 04:39:33;;;;;;;14.85;8.93;;;;;;;33.80;50.91;100764.25;4802531;29;69232;-33
2021/04/04 04:42:04;;;;;;;12.25;8.15;;;;;;;33.83;50.71;100764.84;4801680;29;64670;-32
2021/04/04 04:44:34;;;;;;;10.35;8.40;;;;;;;33.81;51.33;100760.44;4799124;29;69120;-34
2021/04/04 04:47:05;;;;;;;17.30;8.27;;;;;;;33.78;51.83;100766.38;4802214;29;66407;-33
2021/04/04 04:49:37;;;;;;;15.30;7.70;;;;;;;33.55;51.66;100764.59;4805748;29;68395;-33
2021/04/04 04:52:08;;;;;;;10.00;6.32;;;;;;;33.43;50.80;100752.03;4803750;29;65394;-32
2021/04/04 04:54:43;;;;;;;7.40;6.50;;;;;;;33.29;50.47;100765.94;4803487;29;69957;-33
2021/04/04 04:57:15;;;;;;;7.47;5.93;;;;;;;33.07;49.37;100749.41;4803747;29;65557;-32
2021/04/04 04:59:47;;;;;;;9.82;6.20;;;;;;;32.96;49.53;100754.81;4798481;29;69246;-33
2021/04/04 05:02:22;;;;;;;6.35;5.90;;;;;;;32.89;48.53;100758.47;4806684;29;65950;-31
2021/04/04 05:04:51;;;;;;;10.88;6.60;;;;;;;32.87;48.43;100744.31;4802139;29;69441;-33
2021/04/04 05:07:21;;;;;;;11.63;5.93;;;;;;;32.76;47.88;100736.97;4799386;29;65572;-34
2021/04/04 05:09:52;;;;;;;8.05;5.80;;;;;;;32.73;47.05;100742.91;4800620;29;69792;-33
2021/04/04 05:12:25;;;;;;;9.77;6.03;;;;;;;32.64;47.12;100738.88;4798857;29;65904;-33
2021/04/04 05:14:54;;;;;;;13.85;5.60;;;;;;;32.59;48.19;100736.03;4804133;29;70176;-32
2021/04/04 05:17:24;;;;;;;20.15;6.25;;;;;;;32.59;48.67;100728.72;4797827;29;65536;-33
2021/04/04 05:19:58;;;;;;;21.27;5.90;;;;;;;32.59;48.13;100706.19;4811466;29;69929;-35
2021/04/04 05:22:30;;;;;;;17.05;5.63;;;;;;;32.49;47.77;100715.75;4798999;29;65279;-34
2021/04/04 05:25:07;;;;;;;11.65;5.55;;;;;;;32.39;47.04;100715.47;4797086;29;69113;-34
2021/04/04 05:27:37;;;;;;;8.43;5.15;;;;;;;32.33;47.30;100716.41;4802032;29;65435;-35
2021/04/04 05:30:11;;;;;;;11.02;4.50;;;;;;;32.28;47.09;100708.13;4799674;29;69256;-35
2021/04/04 05:32:47;;;;;;;11.32;4.85;;;;;;;32.22;46.63;100714.50;4801987;29;65997;-36
2021/04/04 05:35:23;;;;;;;7.57;4.70;;;;;;;32.15;45.61;100724.63;4795952;29;69123;-35
2021/04/04 05:37:56;;;;;;;8.07;4.65;;;;;;;32.14;46.11;100728.41;4783448;29;65299;-35
2021/04/04 05:40:28;;;;;;;4.93;4.53;;;;;;;32.06;45.35;100694.28;4800727;29;69063;-40
2021/04/04 05:43:01;;;;;;;7.93;4.65;;;;;;;32.09;45.40;100682.16;4801721;29;65096;-34
2021/04/04 05:45:40;;;;;;;5.00;4.60;;;;;;;32.03;45.00;100673.88;4801801;29;69079;-34
2021/04/04 05:48:17;;;;;;;4.55;4.15;;;;;;;31.85;43.89;100646.81;4799349;29;65378;-35
2021/04/04 05:51:14;;;;;;;6.25;4.00;;;;;;;31.87;43.92;100641.13;4804836;29;70099;-34
2021/04/04 05:54:20;;;;;;;8.43;4.25;;;;;;;31.80;43.39;100641.25;4786916;29;65341;-33
2021/04/04 05:56:58;;;;;;;4.45;4.10;;;;;;;31.85;43.82;100635.13;4802807;29;69517;-35
2021/04/04 05:59:40;;;;;;;5.57;3.72;;;;;;;31.79;43.14;100634.19;4803412;29;65495;-33
2021/04/04 06:02:37;;;;;;;6.33;3.53;;;;;;;31.73;42.62;100624.25;4804164;29;69272;-34
2021/04/04 06:05:22;;;;;;;3.75;3.53;;;;;;;31.61;43.20;100587.09;4796862;29;66350;-33
2021/04/04 06:08:28;;;;;;;4.45;4.15;;;;;;;31.71;42.55;100607.41;4802431;29;69506;-33
2021/04/04 06:11:33;;;;;;;4.22;3.92;;;;;;;31.69;42.05;100583.22;4786500;29;66385;-34
2021/04/04 06:14:26;;;;;;;4.47;4.18;;;;;;;31.60;41.99;100582.72;4795059;29;69264;-33
2021/04/04 06:17:03;;;;;;;4.22;3.92;;;;;;;31.67;41.71;100577.19;4798263;29;65707;-34
2021/04/04 06:19:49;;;;;;;4.22;3.95;;;;;;;31.58;42.16;100584.00;4799401;29;70583;-33
2021/04/04 06:22:33;;;;;;;4.43;3.50;;;;;;;31.59;42.12;100580.22;4801602;29;66741;-34
2021/04/04 06:25:26;;;;;;;5.75;3.60;;;;;;;31.53;41.83;100567.63;4800481;29;70004;-33
2021/04/04 06:28:13;;;;;;;3.50;3.20;;;;;;;31.61;41.69;100581.66;4799247;29;66056;-34
2021/04/04 06:31:04;;;;;;;4.57;3.80;;;;;;;31.50;41.11;100571.63;4797016;29;69158;-35
2021/04/04 06:34:09;;;;;;;3.50;3.30;;;;;;;31.57;41.13;100583.19;4800756;29;65930;-33
2021/04/04 06:36:42;;;;;;;3.38;3.00;;;;;;;31.60;41.64;100588.16;4804361;29;70030;-33
2021/04/04 06:39:42;;;;;;;3.72;3.53;;;;;;;31.51;41.17;100577.84;4805230;29;65958;-35
2021/04/04 06:42:22;;;;;;;3.80;3.50;;;;;;;31.47;40.64;100569.38;4801540;29;69073;-34
2021/04/04 06:45:01;;;;;;;4.32;3.28;;;;;;;31.43;40.91;100559.25;4803169;29;65826;-33
2021/04/04 06:47:54;;;;;;;3.13;2.92;;;;;;;31.41;40.86;100567.59;4794354;29;69752;-34
2021/04/04 06:50:31;;;;;;;3.78;2.78;;;;;;;31.41;40.92;100573.00;4797459;29;66164;-39
2021/04/04 06:53:22;;;;;;;3.30;3.00;;;;;;;31.37;40.10;100572.66;4794602;29;70118;-33
2021/04/04 06:56:06;;;;;;;2.85;2.72;;;;;;;31.31;40.75;100551.03;4802919;29;68201;-35
2021/04/04 06:59:00;;;;;;;4.10;3.07;;;;;;;31.33;39.62;100559.75;4800454;29;68623;-33
2021/04/04 07:01:59;;;;;;;2.80;2.55;;;;;;;31.29;39.73;100561.28;4800320;29;65678;-33
2021/04/04 07:04:47;;;;;;;10.48;3.03;;;;;;;31.32;40.86;100558.13;4794698;29;70295;-34
2021/04/04 07:07:53;;;;;;;2.67;2.47;;;;;;;31.31;40.51;100573.53;4799783;29;65857;-33
2021/04/04 07:10:39;;;;;;;5.55;2.75;;;;;;;31.44;39.92;100577.16;4805455;29;70262;-34
2021/04/04 07:13:30;;;;;;;3.97;2.85;;;;;;;31.31;39.96;100578.13;4798264;29;65724;-34
2021/04/04 07:16:35;;;;;;;2.80;2.60;;;;;;;31.25;40.54;100565.50;4793447;29;69481;-33
2021/04/04 07:19:39;;;;;;;6.25;2.78;;;;;;;31.35;40.26;100571.19;4800223;29;65246;-33
2021/04/04 07:22:25;;;;;;;6.90;2.80;;;;;;;31.35;40.38;100590.16;4794729;29;70585;-34
2021/04/04 07:25:08;;;;;;;2.65;2.45;;;;;;;31.26;40.45;100596.94;4797557;29;66412;-34
2021/04/04 07:27:56;;;;;;;2.17;2.05;;;;;;;31.28;40.95;100616.53;4798863;29;70032;-34
2021/04/04 07:30:33;;;;;;;3.00;2.80;;;;;;;31.20;40.76;100608.72;4774142;29;67710;-38
2021/04/04 07:33:18;;;;;;;2.35;2.15;;;;;;;31.16;41.11;100603.75;4799424;29;70136;-36
2021/04/04 07:36:15;;;;;;;2.58;2.25;;;;;;;31.10;41.27;100611.97;4775069;29;66345;-35
2021/04/04 07:38:48;;;;;;;2.30;2.10;;;;;;;31.04;41.83;100600.19;4790987;29;70089;-34
2021/04/04 07:41:24;;;;;;;4.85;2.20;;;;;;;31.11;41.90;100641.53;4801624;29;65658;-34
2021/04/04 07:44:16;;;;;;;9.57;2.40;;;;;;;30.98;43.22;100579.44;4773758;29;70041;-35
2021/04/04 07:47:03;;;;;;;2.50;1.98;;;;;;;31.12;44.05;100564.66;4790335;29;65325;-37
2021/04/04 07:49:45;;;;;;;12.65;2.47;;;;;;;31.31;44.00;100546.44;4786733;29;69300;-37
2021/04/04 07:52:23;;;;;;;2.55;2.35;;;;;;;31.43;44.74;100534.84;4802955;29;65200;-35
2021/04/04 07:55:31;;;;;;;2.60;2.40;;;;;;;31.57;45.40;100550.66;4803188;29;70586;-35
2021/04/04 07:58:16;;;;;;;6.22;2.42;;;;;;;31.67;46.19;100554.69;4769216;29;65093;-34
2021/04/04 08:00:53;;;;;;;3.80;3.28;;;;;;;31.66;48.23;100547.63;4798761;29;69694;-34
2021/04/04 08:03:49;;;;;;;3.38;3.08;;;;;;;31.81;49.26;100534.41;4793021;29;64817;-35
2021/04/04 08:06:24;;;;;;;3.15;2.50;;;;;;;31.88;48.06;100524.28;4786658;29;70169;-35
2021/04/04 08:09:17;;;;;;;3.33;3.03;;;;;;;31.95;49.13;100527.72;4798818;29;65892;-33
2021/04/04 08:11:54;;;;;;;13.32;3.55;;;;;;;31.90;50.95;100500.47;4791232;29;70273;-34
2021/04/04 08:14:31;;;;;;;5.72;3.10;;;;;;;31.99;51.05;100511.81;4797226;29;64894;-33
2021/04/04 08:17:04;;;;;;;12.90;3.38;;;;;;;32.00;51.03;100514.28;4788091;29;70152;-34
2021/04/04 08:19:34;;;;;;;6.13;3.58;;;;;;;32.10;51.23;100504.72;4805277;29;65392;-35
2021/04/04 08:22:27;;;;;;;9.15;2.95;;;;;;;32.16;51.74;100503.78;4777032;29;70863;-33
2021/04/04 08:25:12;;;;;;;5.28;3.45;;;;;;;32.26;51.65;100499.41;4802828;29;65199;-34
2021/04/04 08:28:24;;;;;;;5.20;3.72;;;;;;;32.26;52.23;100498.53;4799657;29;70079;-33
2021/04/04 08:31:00;;;;;;;;;;;;;;;32.26;54.06;100498.53;4763050;29;64574;-33
2021/04/04 08:33:37;;;;;;;6.22;4.55;;;;;;;32.34;53.79;100484.59;4803914;29;69892;-33
2021/04/04 08:36:14;;;;;;;8.07;5.00;;;;;;;32.39;54.40;100497.47;4803130;29;67123;-34
2021/04/04 08:38:48;;;;;;;11.05;5.90;;;;;;;32.40;55.96;100499.97;4803166;29;69928;-32
2021/04/04 08:41:20;;;;;;;10.30;5.07;;;;;;;32.39;55.41;100492.84;4803246;29;65827;-33
2021/04/04 08:44:01;;;;;;;21.58;5.80;;;;;;;32.42;57.22;100484.22;4805227;29;70298;-33
2021/04/04 08:46:45;;;;;;;18.02;5.75;;;;;;;32.47;57.20;100484.38;4806024;29;66211;-32
2021/04/04 08:49:17;;;;;;;9.23;5.93;;;;;;;32.62;56.98;100496.59;4803206;29;68905;-32
2021/04/04 08:52:03;;;;;;;12.48;6.20;;;;;;;32.67;57.42;100492.09;4804358;29;66131;-32
2021/04/04 08:54:35;;;;;;;9.57;6.05;;;;;;;32.72;56.18;100485.94;4799209;29;70347;-33
2021/04/04 08:57:06;;;;;;;9.23;6.07;;;;;;;32.81;57.23;100486.38;4802789;29;66042;-32
2021/04/04 08:59:36;;;;;;;10.80;6.20;;;;;;;32.85;57.82;100491.09;4800258;29;68410;-34
2021/04/04 09:02:06;;;;;;;11.25;6.43;;;;;;;32.90;57.49;100498.50;4798820;29;66429;-33
2021/04/04 09:04:43;;;;;;;7.75;6.28;;;;;;;32.83;58.35;100492.41;4801218;29;69734;-32
2021/04/04 09:07:16;;;;;;;8.88;6.05;;;;;;;32.91;57.66;100500.97;4798217;29;66249;-32
2021/04/04 09:09:49;;;;;;;9.70;5.85;;;;;;;32.92;58.04;100502.63;4807585;29;69369;-32
2021/04/04 09:12:21;;;;;;;6.07;5.50;;;;;;;32.90;57.22;100507.50;4801536;29;65836;-33
2021/04/04 09:14:51;;;;;;;6.75;5.95;;;;;;;32.96;57.26;100510.28;4802146;29;69084;-33
2021/04/04 09:17:22;;;;;;;7.53;5.72;;;;;;;32.96;57.64;100508.41;4800144;29;65471;-32
2021/04/04 09:20:00;;;;;;;6.40;5.80;;;;;;;32.99;57.03;100509.78;4794830;29;69209;-32
2021/04/04 09:22:31;;;;;;;11.15;6.28;;;;;;;32.92;57.34;100497.19;4798685;29;65070;-33
2021/04/04 09:25:07;;;;;;;7.60;5.70;;;;;;;33.06;57.20;100513.22;4813122;29;69953;-31
2021/04/04 09:27:42;;;;;;;7.88;6.07;;;;;;;33.07;58.36;100523.88;4803513;29;65253;-33
2021/04/04 09:30:23;;;;;;;9.50;5.82;;;;;;;33.07;58.04;100504.00;4802120;29;69300;-33
2021/04/04 09:33:01;;;;;;;8.93;6.45;;;;;;;33.21;58.31;100529.81;4804173;29;65609;-33
2021/04/04 09:35:32;;;;;;;14.60;7.13;;;;;;;33.27;58.20;100542.44;4818543;29;69494;-33
2021/04/04 09:38:11;;;;;;;7.82;6.78;;;;;;;33.30;58.66;100546.56;4795029;29;65500;-33
2021/04/04 09:40:43;;;;;;;14.13;7.10;;;;;;;33.33;57.78;100552.31;4798898;29;69410;-33
2021/04/04 09:43:16;;;;;;;11.27;6.88;;;;;;;33.40;57.67;100556.75;4795136;29;65940;-33
2021/04/04 09:45:45;;;;;;;18.00;6.97;;;;;;;33.42;57.82;100565.50;4797780;29;69113;-32
2021/04/04 09:48:18;;;;;;;10.82;6.97;;;;;;;33.45;58.32;100565.00;4798032;29;65572;-34
2021/04/04 09:51:08;;;;;;;7.90;7.20;;;;;;;33.41;57.36;100563.88;4797809;29;69988;-33
2021/04/04 09:53:46;;;;;;;7.43;6.72;;;;;;;33.47;56.53;100568.31;4797366;29;66249;-33
2021/04/04 09:56:17;;;;;;;8.38;6.78;;;;;;;33.53;56.23;100572.81;4800121;29;69735;-32
2021/04/04 09:58:50;;;;;;;7.10;6.40;;;;;;;33.51;55.42;100572.19;4797409;29;66325;-32
2021/04/04 10:01:24;;;;;;;12.82;7.35;;;;;;;33.44;54.96;100560.66;4799151;29;70581;-33
2021/04/04 10:04:02;;;;;;;13.60;6.35;;;;;;;33.51;55.30;100569.47;4795643;29;65299;-34
2021/04/04 10:06:33;;;;;;;18.63;7.00;;;;;;;33.53;54.75;100564.66;4791925;29;69408;-34
2021/04/04 10:09:07;;;;;;;8.40;7.10;;;;;;;33.50;54.72;100567.81;4804115;29;66099;-33
2021/04/04 10:11:37;;;;;;;10.40;6.95;;;;;;;33.51;54.96;100575.72;4802131;29;70027;-34
2021/04/04 10:14:11;;;;;;;24.92;7.18;;;;;;;33.48;54.21;100580.84;4816351;29;66183;-32
2021/04/04 10:16:42;;;;;;;16.45;9.30;;;;;;;33.49;54.85;100587.91;4800236;29;69922;-32
2021/04/04 10:19:16;;;;;;;14.20;9.17;;;;;;;33.51;55.63;100591.22;4797923;29;65040;-33
2021/04/04 10:21:57;;;;;;;15.60;10.55;;;;;;;33.49;54.61;100590.63;4806446;29;69771;-33
2021/04/04 10:24:31;;;;;;;11.20;9.20;;;;;;;33.43;54.35;100581.56;4801641;29;65853;-33
2021/04/04 10:27:22;;;;;;;13.82;8.57;;;;;;;33.44;53.64;100601.44;4800337;29;68857;-34
2021/04/04 10:30:12;;;;;;;12.23;8.57;;;;;;;33.37;52.61;100583.38;4810298;29;66025;-33
2021/04/04 10:32:46;;;;;;;10.98;8.65;;;;;;;33.40;51.64;100594.81;4797143;29;69878;-34
2021/04/04 10:35:30;;;;;;;12.43;8.07;;;;;;;33.27;50.46;100579.66;4806085;29;66361;-33
2021/04/04 10:38:07;;;;;;;12.63;7.90;;;;;;;33.27;50.44;100575.03;4797013;29;70468;-34
2021/04/04 10:40:56;;;;;;;10.73;8.07;;;;;;;33.28;49.68;100587.56;4801685;29;65805;-33
2021/04/04 10:43:40;;;;;;;10.77;8.23;;;;;;;33.23;50.50;100579.31;4802432;29;69806;-34
2021/04/04 10:46:17;;;;;;;12.95;8.15;;;;;;;33.23;50.53;100576.59;4797935;29;66395;-33
2021/04/04 10:48:48;;;;;;;11.07;7.63;;;;;;;33.26;51.24;100575.28;4804897;29;69197;-32
2021/04/04 10:51:28;;;;;;;16.50;8.85;;;;;;;33.32;51.87;100588.75;4801814;29;66082;-33
2021/04/04 10:54:06;;;;;;;13.93;9.77;;;;;;;33.32;51.45;100577.88;4801492;29;70212;-33
2021/04/04 10:56:37;;;;;;;13.88;9.80;;;;;;;33.32;52.07;100594.16;4799913;29;66126;-33
2021/04/04 10:59:08;;;;;;;14.32;10.27;;;;;;;33.32;51.19;100591.47;4802066;29;69962;-33
2021/04/04 11:01:38;;;;;;;25.40;9.67;;;;;;;33.28;51.49;100582.13;4805167;29;66060;-32
2021/04/04 11:04:12;;;;;;;15.87;9.47;;;;;;;33.28;51.41;100587.56;4797590;29;71505;-33
2021/04/04 11:06:44;;;;;;;15.93;9.50;;;;;;;33.30;51.10;100585.44;4798984;29;66561;-32
2021/04/04 11:09:13;;;;;;;13.95;9.90;;;;;;;33.32;50.81;100583.31;4801901;29;69911;-32
2021/04/04 11:11:44;;;;;;;16.95;9.73;;;;;;;33.27;50.25;100588.63;4795923;29;65934;-31
2021/04/04 11:14:14;;;;;;;18.88;9.35;;;;;;;33.20;50.54;100601.53;4802784;29;69398;-32
2021/04/04 11:16:47;;;;;;;13.77;8.85;;;;;;;33.19;50.62;100609.94;4797216;29;65996;-31
2021/04/04 11:19:17;;;;;;;9.43;8.43;;;;;;;33.19;50.41;100618.94;4800455;29;70243;-31
2021/04/04 11:21:48;;;;;;;9.55;8.52;;;;;;;33.13;50.44;100622.63;4800767;29;66395;-31
2021/04/04 11:24:24;;;;;;;16.08;11.20;;;;;;;33.11;50.42;100630.19;4803605;29;70906;-31
2021/04/04 11:26:58;;;;;;;15.10;10.20;;;;;;;33.10;50.36;100640.22;4801849;29;66539;-31
2021/04/04 11:29:28;;;;;;;17.33;10.30;;;;;;;33.11;50.89;100644.59;4799728;29;70105;-30
2021/04/04 11:32:15;;;;;;;19.02;10.65;;;;;;;33.08;51.43;100641.53;4815572;29;64975;-31
2021/04/04 11:35:03;;;;;;;26.02;10.85;;;;;;;33.06;51.61;100655.34;4801529;29;71431;-30
2021/04/04 11:37:32;;;;;;;21.85;10.85;;;;;;;32.84;52.49;100679.59;4800713;29;64823;-31
2021/04/04 11:40:18;;;;;;;20.60;10.35;;;;;;;32.62;53.11;100671.22;4799950;29;69802;-31
2021/04/04 11:42:50;;;;;;;25.00;11.55;;;;;;;32.62;53.21;100686.69;4795104;29;65851;-31
2021/04/04 11:45:35;;;;;;;;;;;;;;;32.43;54.27;100694.94;4800644;29;69140;-30
2021/04/04 11:48:34;;;;;;;35.75;12.82;;;;;;;32.45;54.47;100692.78;4801159;29;64974;-31
2021/04/04 11:51:16;;;;;;;27.15;11.07;;;;;;;32.39;54.33;100703.78;4799638;29;70514;-31
2021/04/04 11:53:48;;;;;;;19.40;11.23;;;;;;;32.38;54.72;100697.53;4804474;29;66291;-30
2021/04/04 11:56:44;;;;;;;44.47;12.25;;;;;;;32.33;55.25;100702.84;4802318;29;69803;-30
2021/04/04 11:59:15;;;;;;;18.65;11.82;;;;;;;32.29;55.29;100709.81;4795843;29;64959;-30
2021/04/04 12:01:44;;;;;;;13.23;11.23;;;;;;;32.22;55.32;100714.50;4806312;29;69132;-30
2021/04/04 12:04:23;;;;;;;16.45;12.50;;;;;;;32.22;55.87;100720.75;4801432;29;66272;-30